sensor_id;sensor_type;location;lat;lon;timestamp;pressure;altitude;pressure_sealevel;temperature;humidity
9141;BME280;46330;50.822;7.126;2023-04-30T00:01:05;101519.00;;;8.56;100.00
9141;BME280;46330;50.822;7.126;2023-04-30T00:03:33;101508.56;;;8.51;100.00
9141;BME280;46330;50.822;7.126;2023-04-30T00:06:04;101522.44;;;8.46;100.00
9141;BME280;46330;50.822;7.126;2023-04-30T00:08:34;101518.94;;;8.41;100.00
9141;BME280;46330;50.822;7.126;2023-04-30T00:11:02;101522.41;;;8.38;100.00
9141;BME280;46330;50.822;7.126;2023-04-30T00:13:38;101525.00;;;8.35;100.00
9141;BME280;46330;50.822;7.126;2023-04-30T00:16:10;101524.09;;;8.32;100.00
9141;BME280;46330;50.822;7.126;2023-04-30T00:18:38;101523.19;;;8.25;100.00
9141;BME280;46330;50.822;7.126;2023-04-30T00:21:06;101535.31;;;8.16;100.00
9141;BME280;46330;50.822;7.126;2023-04-30T00:23:36;101531.81;;;8.09;100.00
9141;BME280;46330;50.822;7.126;2023-04-30T00:26:05;101536.09;;;8.04;100.00
9141;BME280;46330;50.822;7.126;2023-04-30T00:28:35;101537.00;;;8.03;100.00
9141;BME280;46330;50.822;7.126;2023-04-30T00:31:05;101536.09;;;8.01;100.00
9141;BME280;46330;50.822;7.126;2023-04-30T00:33:34;101536.94;;;7.94;100.00
9141;BME280;46330;50.822;7.126;2023-04-30T00:36:03;101536.00;;;7.86;100.00
9141;BME280;46330;50.822;7.126;2023-04-30T00:38:31;101533.38;;;7.78;100.00
9141;BME280;46330;50.822;7.126;2023-04-30T00:40:59;101539.38;;;7.71;100.00
9141;BME280;46330;50.822;7.126;2023-04-30T00:43:28;101533.28;;;7.68;100.00
9141;BME280;46330;50.822;7.126;2023-04-30T00:45:59;101543.69;;;7.66;100.00
9141;BME280;46330;50.822;7.126;2023-04-30T00:48:32;101535.84;;;7.62;100.00
9141;BME280;46330;50.822;7.126;2023-04-30T00:51:02;101545.38;;;7.61;100.00
9141;BME280;46330;50.822;7.126;2023-04-30T00:53:32;101541.03;;;7.60;100.00
9141;BME280;46330;50.822;7.126;2023-04-30T00:56:07;101542.75;;;7.58;100.00
9141;BME280;46330;50.822;7.126;2023-04-30T00:58:44;101534.91;;;7.56;100.00
9141;BME280;46330;50.822;7.126;2023-04-30T01:01:20;101537.44;;;7.44;100.00
9141;BME280;46330;50.822;7.126;2023-04-30T01:03:55;101536.63;;;7.47;100.00
9141;BME280;46330;50.822;7.126;2023-04-30T01:06:26;101536.59;;;7.45;100.00
9141;BME280;46330;50.822;7.126;2023-04-30T01:08:55;101534.81;;;7.40;100.00
9141;BME280;46330;50.822;7.126;2023-04-30T01:11:29;101543.47;;;7.39;100.00
9141;BME280;46330;50.822;7.126;2023-04-30T01:14:07;101544.28;;;7.35;100.00
9141;BME280;46330;50.822;7.126;2023-04-30T01:16:42;101539.09;;;7.35;100.00
9141;BME280;46330;50.822;7.126;2023-04-30T01:19:26;101538.22;;;7.31;100.00
9141;BME280;46330;50.822;7.126;2023-04-30T01:21:57;101543.41;;;7.28;100.00
9141;BME280;46330;50.822;7.126;2023-04-30T01:24:46;101538.91;;;7.12;100.00
9141;BME280;46330;50.822;7.126;2023-04-30T01:27:27;101536.19;;;7.01;100.00
9141;BME280;46330;50.822;7.126;2023-04-30T01:30:13;101542.25;;;6.99;100.00
9141;BME280;46330;50.822;7.126;2023-04-30T01:32:46;101534.50;;;7.05;100.00
9141;BME280;46330;50.822;7.126;2023-04-30T01:35:23;101539.78;;;7.13;100.00
9141;BME280;46330;50.822;7.126;2023-04-30T01:38:06;101542.41;;;7.13;100.00
9141;BME280;46330;50.822;7.126;2023-04-30T01:40:41;101539.81;;;7.16;100.00
9141;BME280;46330;50.822;7.126;2023-04-30T01:43:17;101542.38;;;7.11;100.00
9141;BME280;46330;50.822;7.126;2023-04-30T01:45:56;101534.50;;;7.03;100.00
9141;BME280;46330;50.822;7.126;2023-04-30T01:48:47;101543.97;;;6.98;100.00
9141;BME280;46330;50.822;7.126;2023-04-30T01:51:25;101540.41;;;6.87;100.00
9141;BME280;46330;50.822;7.126;2023-04-30T01:53:56;101540.31;;;6.80;100.00
9141;BME280;46330;50.822;7.126;2023-04-30T01:56:28;101543.72;;;6.74;100.00
9141;BME280;46330;50.822;7.126;2023-04-30T01:58:57;101546.25;;;6.70;100.00
9141;BME280;46330;50.822;7.126;2023-04-30T02:01:29;101550.66;;;6.72;100.00
9141;BME280;46330;50.822;7.126;2023-04-30T02:03:57;101542.75;;;6.65;100.00
9141;BME280;46330;50.822;7.126;2023-04-30T02:06:26;101538.38;;;6.59;100.00
9141;BME280;46330;50.822;7.126;2023-04-30T02:08:56;101549.59;;;6.58;100.00
9141;BME280;46330;50.822;7.126;2023-04-30T02:11:29;101548.72;;;6.58;100.00
9141;BME280;46330;50.822;7.126;2023-04-30T02:13:57;101547.84;;;6.56;100.00
9141;BME280;46330;50.822;7.126;2023-04-30T02:16:25;101544.38;;;6.54;100.00
9141;BME280;46330;50.822;7.126;2023-04-30T02:18:54;101546.94;;;6.51;100.00
9141;BME280;46330;50.822;7.126;2023-04-30T02:21:22;101551.19;;;6.45;100.00
9141;BME280;46330;50.822;7.126;2023-04-30T02:23:50;101545.97;;;6.42;100.00
9141;BME280;46330;50.822;7.126;2023-04-30T02:26:18;101554.63;;;6.44;100.00
9141;BME280;46330;50.822;7.126;2023-04-30T02:28:46;101553.75;;;6.41;100.00
9141;BME280;46330;50.822;7.126;2023-04-30T02:31:14;101557.13;;;6.34;100.00
9141;BME280;46330;50.822;7.126;2023-04-30T02:33:44;101557.09;;;6.31;100.00
9141;BME280;46330;50.822;7.126;2023-04-30T02:36:13;101553.59;;;6.30;100.00
9141;BME280;46330;50.822;7.126;2023-04-30T02:38:41;101558.78;;;6.29;100.00
9141;BME280;46330;50.822;7.126;2023-04-30T02:41:09;101550.06;;;6.22;100.00
9141;BME280;46330;50.822;7.126;2023-04-30T02:43:38;101552.59;;;6.21;100.00
9141;BME280;46330;50.822;7.126;2023-04-30T02:46:05;101555.13;;;6.15;100.00
9141;BME280;46330;50.822;7.126;2023-04-30T02:48:33;101561.19;;;6.15;100.00
9141;BME280;46330;50.822;7.126;2023-04-30T02:51:02;101559.47;;;6.16;100.00
9141;BME280;46330;50.822;7.126;2023-04-30T02:53:31;101562.09;;;6.17;100.00
9141;BME280;46330;50.822;7.126;2023-04-30T02:55:59;101558.59;;;6.17;100.00
9141;BME280;46330;50.822;7.126;2023-04-30T02:58:27;101561.16;;;6.14;100.00
9141;BME280;46330;50.822;7.126;2023-04-30T03:00:55;101555.88;;;6.08;100.00
9141;BME280;46330;50.822;7.126;2023-04-30T03:03:23;101556.72;;;6.05;100.00
9141;BME280;46330;50.822;7.126;2023-04-30T03:05:51;101551.50;;;6.01;100.00
9141;BME280;46330;50.822;7.126;2023-04-30T03:08:22;101555.84;;;6.03;100.00
9141;BME280;46330;50.822;7.126;2023-04-30T03:10:51;101561.03;;;6.03;100.00
9141;BME280;46330;50.822;7.126;2023-04-30T03:13:19;101559.28;;;6.01;100.00
9141;BME280;46330;50.822;7.126;2023-04-30T03:15:47;101560.06;;;5.97;100.00
9141;BME280;46330;50.822;7.126;2023-04-30T03:18:15;101557.41;;;5.92;100.00
9141;BME280;46330;50.822;7.126;2023-04-30T03:20:43;101548.69;;;5.88;100.00
9141;BME280;46330;50.822;7.126;2023-04-30T03:23:11;101559.88;;;5.84;100.00
9141;BME280;46330;50.822;7.126;2023-04-30T03:25:39;101552.88;;;5.80;100.00
9141;BME280;46330;50.822;7.126;2023-04-30T03:28:08;101556.31;;;5.79;100.00
9141;BME280;46330;50.822;7.126;2023-04-30T03:30:36;101561.47;;;5.76;100.00
9141;BME280;46330;50.822;7.126;2023-04-30T03:33:03;101558.03;;;5.76;100.00
9141;BME280;46330;50.822;7.126;2023-04-30T03:35:32;101560.56;;;5.73;100.00
9141;BME280;46330;50.822;7.126;2023-04-30T03:38:00;101561.38;;;5.69;100.00
9141;BME280;46330;50.822;7.126;2023-04-30T03:40:29;101562.19;;;5.66;100.00
9141;BME280;46330;50.822;7.126;2023-04-30T03:42:57;101568.19;;;5.62;100.00
9141;BME280;46330;50.822;7.126;2023-04-30T03:45:26;101558.63;;;5.60;100.00
9141;BME280;46330;50.822;7.126;2023-04-30T03:47:54;101561.13;;;5.55;100.00
9141;BME280;46330;50.822;7.126;2023-04-30T03:50:22;101557.63;;;5.52;100.00
9141;BME280;46330;50.822;7.126;2023-04-30T03:52:50;101565.44;;;5.53;100.00
9141;BME280;46330;50.822;7.126;2023-04-30T03:55:18;101569.66;;;5.48;100.00
9141;BME280;46330;50.822;7.126;2023-04-30T03:57:46;101568.72;;;5.43;100.00
9141;BME280;46330;50.822;7.126;2023-04-30T04:00:15;101569.56;;;5.40;100.00
9141;BME280;46330;50.822;7.126;2023-04-30T04:02:49;101557.41;;;5.38;100.00
9141;BME280;46330;50.822;7.126;2023-04-30T04:05:17;101559.13;;;5.37;100.00
9141;BME280;46330;50.822;7.126;2023-04-30T04:07:45;101557.38;;;5.36;100.00
9141;BME280;46330;50.822;7.126;2023-04-30T04:10:13;101560.75;;;5.32;100.00
9141;BME280;46330;50.822;7.126;2023-04-30T04:12:42;101560.84;;;5.37;100.00
9141;BME280;46330;50.822;7.126;2023-04-30T04:15:10;101566.88;;;5.36;100.00
9141;BME280;46330;50.822;7.126;2023-04-30T04:17:38;101561.66;;;5.34;100.00
9141;BME280;46330;50.822;7.126;2023-04-30T04:20:09;101558.25;;;5.35;100.00
9141;BME280;46330;50.822;7.126;2023-04-30T04:22:39;101562.56;;;5.36;100.00
9141;BME280;46330;50.822;7.126;2023-04-30T04:25:08;101567.69;;;5.33;100.00
9141;BME280;46330;50.822;7.126;2023-04-30T04:27:37;101564.16;;;5.30;100.00
9141;BME280;46330;50.822;7.126;2023-04-30T04:30:06;101573.75;;;5.34;100.00
9141;BME280;46330;50.822;7.126;2023-04-30T04:32:34;101571.25;;;5.38;100.00
9141;BME280;46330;50.822;7.126;2023-04-30T04:35:09;101573.88;;;5.40;100.00
9141;BME280;46330;50.822;7.126;2023-04-30T04:37:37;101561.00;;;5.46;100.00
9141;BME280;46330;50.822;7.126;2023-04-30T04:40:06;101572.38;;;5.56;100.00
9141;BME280;46330;50.822;7.126;2023-04-30T04:42:34;101564.69;;;5.60;100.00
9141;BME280;46330;50.822;7.126;2023-04-30T04:45:04;101563.97;;;5.70;100.00
9141;BME280;46330;50.822;7.126;2023-04-30T04:47:33;101575.41;;;5.83;100.00
9141;BME280;46330;50.822;7.126;2023-04-30T04:50:02;101574.78;;;5.96;100.00
9141;BME280;46330;50.822;7.126;2023-04-30T04:52:31;101568.91;;;6.11;100.00
9141;BME280;46330;50.822;7.126;2023-04-30T04:54:59;101578.63;;;6.24;100.00
9141;BME280;46330;50.822;7.126;2023-04-30T04:57:27;101574.44;;;6.32;100.00
9141;BME280;46330;50.822;7.126;2023-04-30T04:59:55;101567.59;;;6.41;100.00
9141;BME280;46330;50.822;7.126;2023-04-30T05:02:23;101566.97;;;6.59;100.00
9141;BME280;46330;50.822;7.126;2023-04-30T05:04:51;101573.25;;;6.78;100.00
9141;BME280;46330;50.822;7.126;2023-04-30T05:07:19;101569.94;;;6.91;100.00
9141;BME280;46330;50.822;7.126;2023-04-30T05:09:48;101577.97;;;7.17;100.00
9141;BME280;46330;50.822;7.126;2023-04-30T05:12:16;101573.00;;;7.42;100.00
9141;BME280;46330;50.822;7.126;2023-04-30T05:14:44;101581.06;;;7.74;100.00
9141;BME280;46330;50.822;7.126;2023-04-30T05:17:13;101580.31;;;7.92;99.63
9141;BME280;46330;50.822;7.126;2023-04-30T05:19:40;101590.00;;;8.11;99.02
9141;BME280;46330;50.822;7.126;2023-04-30T05:22:08;101589.31;;;8.41;98.20
9141;BME280;46330;50.822;7.126;2023-04-30T05:24:36;101591.19;;;8.78;97.15
9141;BME280;46330;50.822;7.126;2023-04-30T05:27:05;101599.00;;;8.75;96.51
9141;BME280;46330;50.822;7.126;2023-04-30T05:29:33;101606.03;;;8.91;95.92
9141;BME280;46330;50.822;7.126;2023-04-30T05:32:01;101610.47;;;9.23;94.59
9141;BME280;46330;50.822;7.126;2023-04-30T05:34:29;101615.72;;;9.59;92.22
9141;BME280;46330;50.822;7.126;2023-04-30T05:36:58;101617.47;;;9.64;90.83
9141;BME280;46330;50.822;7.126;2023-04-30T05:39:27;101615.72;;;9.83;90.00
9141;BME280;46330;50.822;7.126;2023-04-30T05:41:54;101620.09;;;10.17;88.18
9141;BME280;46330;50.822;7.126;2023-04-30T05:44:24;101622.63;;;10.52;85.63
9141;BME280;46330;50.822;7.126;2023-04-30T05:46:52;101622.59;;;10.57;85.62
9141;BME280;46330;50.822;7.126;2023-04-30T05:49:20;101628.59;;;10.82;84.10
9141;BME280;46330;50.822;7.126;2023-04-30T05:51:47;101620.59;;;11.06;83.63
9141;BME280;46330;50.822;7.126;2023-04-30T05:54:15;101626.50;;;11.41;81.48
9141;BME280;46330;50.822;7.126;2023-04-30T05:56:43;101628.13;;;11.60;80.00
9141;BME280;46330;50.822;7.126;2023-04-30T05:59:11;101627.22;;;11.61;77.99
9141;BME280;46330;50.822;7.126;2023-04-30T06:01:41;101630.50;;;11.91;78.23
9141;BME280;46330;50.822;7.126;2023-04-30T06:04:09;101625.09;;;12.09;76.67
9141;BME280;46330;50.822;7.126;2023-04-30T06:06:37;101632.16;;;11.99;76.52
9141;BME280;46330;50.822;7.126;2023-04-30T06:09:06;101630.22;;;12.22;76.32
9141;BME280;46330;50.822;7.126;2023-04-30T06:11:34;101617.91;;;12.27;75.20
9141;BME280;46330;50.822;7.126;2023-04-30T06:14:02;101615.81;;;12.58;73.63
9141;BME280;46330;50.822;7.126;2023-04-30T06:16:30;101620.03;;;12.71;72.77
9141;BME280;46330;50.822;7.126;2023-04-30T06:19:00;101621.56;;;12.87;73.35
9141;BME280;46330;50.822;7.126;2023-04-30T06:21:28;101622.25;;;13.03;72.97
9141;BME280;46330;50.822;7.126;2023-04-30T06:23:56;101614.31;;;13.11;73.07
9141;BME280;46330;50.822;7.126;2023-04-30T06:26:24;101616.81;;;13.73;69.96
9141;BME280;46330;50.822;7.126;2023-04-30T06:28:52;101614.19;;;13.75;68.74
9141;BME280;46330;50.822;7.126;2023-04-30T06:31:19;101614.69;;;13.95;69.00
9141;BME280;46330;50.822;7.126;2023-04-30T06:33:47;101620.03;;;14.41;64.70
9141;BME280;46330;50.822;7.126;2023-04-30T06:36:17;101612.25;;;14.78;63.60
9141;BME280;46330;50.822;7.126;2023-04-30T06:38:45;101602.38;;;15.27;62.16
9141;BME280;46330;50.822;7.126;2023-04-30T06:41:13;101610.56;;;15.15;61.80
9141;BME280;46330;50.822;7.126;2023-04-30T06:43:42;101608.06;;;15.46;61.34
9141;BME280;46330;50.822;7.126;2023-04-30T06:46:10;101607.28;;;15.79;61.69
9141;BME280;46330;50.822;7.126;2023-04-30T06:48:38;101609.81;;;15.47;61.19
9141;BME280;46330;50.822;7.126;2023-04-30T06:51:05;101610.16;;;15.70;59.74
9141;BME280;46330;50.822;7.126;2023-04-30T06:53:40;101614.09;;;16.22;57.67
9141;BME280;46330;50.822;7.126;2023-04-30T06:56:08;101617.72;;;16.81;55.55
9141;BME280;46330;50.822;7.126;2023-04-30T06:58:36;101613.63;;;17.00;55.43
9141;BME280;46330;50.822;7.126;2023-04-30T07:01:04;101612.72;;;16.39;57.05
9141;BME280;46330;50.822;7.126;2023-04-30T07:03:33;101606.91;;;16.88;56.19
9141;BME280;46330;50.822;7.126;2023-04-30T07:06:01;101603.78;;;17.33;55.27
9141;BME280;46330;50.822;7.126;2023-04-30T07:08:29;101598.09;;;17.45;53.13
9141;BME280;46330;50.822;7.126;2023-04-30T07:10:58;101595.19;;;17.80;54.09
9141;BME280;46330;50.822;7.126;2023-04-30T07:13:26;101582.63;;;17.87;52.31
9141;BME280;46330;50.822;7.126;2023-04-30T07:15:54;101594.03;;;17.89;51.29
9141;BME280;46330;50.822;7.126;2023-04-30T07:18:22;101587.22;;;18.06;50.09
9141;BME280;46330;50.822;7.126;2023-04-30T07:20:50;101587.53;;;18.22;50.57
9141;BME280;46330;50.822;7.126;2023-04-30T07:23:18;101594.25;;;18.57;50.51
9141;BME280;46330;50.822;7.126;2023-04-30T07:25:46;101589.94;;;18.54;49.07
9141;BME280;46330;50.822;7.126;2023-04-30T07:28:16;101600.22;;;18.62;50.25
9141;BME280;46330;50.822;7.126;2023-04-30T07:30:43;101603.94;;;19.04;48.09
9141;BME280;46330;50.822;7.126;2023-04-30T07:33:11;101596.38;;;19.60;46.85
9141;BME280;46330;50.822;7.126;2023-04-30T07:35:39;101599.53;;;19.70;46.03
9141;BME280;46330;50.822;7.126;2023-04-30T07:38:07;101591.72;;;20.48;45.75
9141;BME280;46330;50.822;7.126;2023-04-30T07:40:35;101590.47;;;20.36;43.82
9141;BME280;46330;50.822;7.126;2023-04-30T07:43:03;101590.38;;;19.77;44.06
9141;BME280;46330;50.822;7.126;2023-04-30T07:45:34;101587.19;;;20.50;42.36
9141;BME280;46330;50.822;7.126;2023-04-30T07:48:03;101592.38;;;20.12;44.59
9141;BME280;46330;50.822;7.126;2023-04-30T07:50:31;101596.69;;;19.53;43.81
9141;BME280;46330;50.822;7.126;2023-04-30T07:53:00;101584.34;;;19.94;42.84
9141;BME280;46330;50.822;7.126;2023-04-30T07:55:28;101589.00;;;19.89;44.61
9141;BME280;46330;50.822;7.126;2023-04-30T07:57:56;101588.66;;;20.75;44.17
9141;BME280;46330;50.822;7.126;2023-04-30T08:00:25;101592.44;;;19.49;44.58
9141;BME280;46330;50.822;7.126;2023-04-30T08:02:56;101583.13;;;20.80;42.86
9141;BME280;46330;50.822;7.126;2023-04-30T08:05:25;101578.91;;;20.37;43.46
9141;BME280;46330;50.822;7.126;2023-04-30T08:07:52;101578.31;;;21.25;41.54
9141;BME280;46330;50.822;7.126;2023-04-30T08:10:20;101581.53;;;21.68;42.67
9141;BME280;46330;50.822;7.126;2023-04-30T08:12:48;101585.66;;;21.56;40.97
9141;BME280;46330;50.822;7.126;2023-04-30T08:15:16;101584.34;;;21.48;40.54
9141;BME280;46330;50.822;7.126;2023-04-30T08:17:47;101592.28;;;21.12;41.36
9141;BME280;46330;50.822;7.126;2023-04-30T08:20:17;101588.03;;;22.64;38.41
9141;BME280;46330;50.822;7.126;2023-04-30T08:22:45;101586.81;;;22.21;41.01
9141;BME280;46330;50.822;7.126;2023-04-30T08:25:13;101584.78;;;22.09;41.46
9141;BME280;46330;50.822;7.126;2023-04-30T08:27:41;101587.59;;;22.06;40.46
9141;BME280;46330;50.822;7.126;2023-04-30T08:30:10;101583.34;;;21.84;41.71
9141;BME280;46330;50.822;7.126;2023-04-30T08:32:38;101582.66;;;22.48;39.27
9141;BME280;46330;50.822;7.126;2023-04-30T08:35:07;101585.34;;;22.81;38.25
9141;BME280;46330;50.822;7.126;2023-04-30T08:37:36;101586.88;;;20.17;42.65
9141;BME280;46330;50.822;7.126;2023-04-30T08:40:05;101581.28;;;21.19;42.82
9141;BME280;46330;50.822;7.126;2023-04-30T08:42:36;101577.88;;;21.34;43.96
9141;BME280;46330;50.822;7.126;2023-04-30T08:45:08;101577.19;;;21.12;43.53
9141;BME280;46330;50.822;7.126;2023-04-30T08:47:38;101565.25;;;22.25;41.48
9141;BME280;46330;50.822;7.126;2023-04-30T08:50:07;101569.28;;;21.47;41.16
9141;BME280;46330;50.822;7.126;2023-04-30T08:52:37;101559.94;;;22.74;40.34
9141;BME280;46330;50.822;7.126;2023-04-30T08:55:07;101561.53;;;22.61;39.35
9141;BME280;46330;50.822;7.126;2023-04-30T08:57:36;101562.56;;;23.22;38.96
9141;BME280;46330;50.822;7.126;2023-04-30T09:00:06;101559.44;;;23.14;38.71
9141;BME280;46330;50.822;7.126;2023-04-30T09:02:38;101558.34;;;23.02;39.87
9141;BME280;46330;50.822;7.126;2023-04-30T09:05:10;101550.34;;;22.87;39.11
9141;BME280;46330;50.822;7.126;2023-04-30T09:07:40;101559.59;;;22.14;39.50
9141;BME280;46330;50.822;7.126;2023-04-30T09:10:19;101558.25;;;23.04;39.23
9141;BME280;46330;50.822;7.126;2023-04-30T09:12:58;101561.94;;;22.86;39.28
9141;BME280;46330;50.822;7.126;2023-04-30T09:15:26;101564.38;;;22.25;39.97
9141;BME280;46330;50.822;7.126;2023-04-30T09:18:08;101553.63;;;22.26;40.47
9141;BME280;46330;50.822;7.126;2023-04-30T09:20:38;101550.28;;;21.71;39.58
9141;BME280;46330;50.822;7.126;2023-04-30T09:23:21;101546.78;;;22.71;38.34
9141;BME280;46330;50.822;7.126;2023-04-30T09:25:49;101545.84;;;23.19;37.92
9141;BME280;46330;50.822;7.126;2023-04-30T09:28:18;101544.81;;;22.41;37.92
9141;BME280;46330;50.822;7.126;2023-04-30T09:30:50;101528.41;;;22.82;36.62
9141;BME280;46330;50.822;7.126;2023-04-30T09:33:18;101533.34;;;23.35;36.99
9141;BME280;46330;50.822;7.126;2023-04-30T09:35:46;101530.56;;;24.12;35.79
9141;BME280;46330;50.822;7.126;2023-04-30T09:38:29;101529.72;;;23.20;34.49
9141;BME280;46330;50.822;7.126;2023-04-30T09:40:58;101525.78;;;23.43;30.97
9141;BME280;46330;50.822;7.126;2023-04-30T09:43:26;101520.63;;;24.42;28.87
9141;BME280;46330;50.822;7.126;2023-04-30T09:45:57;101518.38;;;24.77;30.38
9141;BME280;46330;50.822;7.126;2023-04-30T09:48:26;101522.53;;;24.40;30.85
9141;BME280;46330;50.822;7.126;2023-04-30T09:50:54;101520.03;;;24.65;30.10
9141;BME280;46330;50.822;7.126;2023-04-30T09:53:22;101521.69;;;26.00;28.33
9141;BME280;46330;50.822;7.126;2023-04-30T09:55:51;101524.31;;;25.23;28.31
9141;BME280;46330;50.822;7.126;2023-04-30T09:58:23;101511.53;;;25.40;27.32
9141;BME280;46330;50.822;7.126;2023-04-30T10:00:57;101508.50;;;25.59;27.75
9141;BME280;46330;50.822;7.126;2023-04-30T10:03:26;101509.78;;;26.67;26.32
9141;BME280;46330;50.822;7.126;2023-04-30T10:05:54;101511.75;;;25.89;27.51
9141;BME280;46330;50.822;7.126;2023-04-30T10:08:26;101500.97;;;26.65;24.87
9141;BME280;46330;50.822;7.126;2023-04-30T10:10:58;101498.34;;;25.89;26.52
9141;BME280;46330;50.822;7.126;2023-04-30T10:13:31;101502.78;;;24.28;27.86
9141;BME280;46330;50.822;7.126;2023-04-30T10:16:03;101506.47;;;27.71;24.70
9141;BME280;46330;50.822;7.126;2023-04-30T10:18:37;101496.28;;;27.63;23.18
9141;BME280;46330;50.822;7.126;2023-04-30T10:21:06;101480.41;;;27.71;24.76
9141;BME280;46330;50.822;7.126;2023-04-30T10:23:38;101490.66;;;27.66;24.87
9141;BME280;46330;50.822;7.126;2023-04-30T10:26:09;101491.75;;;27.05;25.90
9141;BME280;46330;50.822;7.126;2023-04-30T10:28:37;101487.47;;;26.90;24.80
9141;BME280;46330;50.822;7.126;2023-04-30T10:31:06;101489.44;;;27.12;24.55
9141;BME280;46330;50.822;7.126;2023-04-30T10:33:41;101476.22;;;26.49;25.14
9141;BME280;46330;50.822;7.126;2023-04-30T10:36:22;101480.41;;;27.13;26.33
9141;BME280;46330;50.822;7.126;2023-04-30T10:38:51;101467.16;;;25.09;26.64
9141;BME280;46330;50.822;7.126;2023-04-30T10:41:21;101472.38;;;25.77;26.72
9141;BME280;46330;50.822;7.126;2023-04-30T10:43:49;101473.28;;;23.72;29.49
9141;BME280;46330;50.822;7.126;2023-04-30T10:46:26;101463.22;;;25.15;27.45
9141;BME280;46330;50.822;7.126;2023-04-30T10:48:54;101463.63;;;25.48;26.96
9141;BME280;46330;50.822;7.126;2023-04-30T10:51:22;101468.47;;;25.17;27.41
9141;BME280;46330;50.822;7.126;2023-04-30T10:53:51;101462.81;;;24.94;27.18
9141;BME280;46330;50.822;7.126;2023-04-30T10:56:32;101458.66;;;24.90;27.40
9141;BME280;46330;50.822;7.126;2023-04-30T10:59:01;101452.03;;;24.41;28.98
9141;BME280;46330;50.822;7.126;2023-04-30T11:01:29;101437.53;;;25.77;27.88
9141;BME280;46330;50.822;7.126;2023-04-30T11:04:06;101442.06;;;26.87;24.49
9141;BME280;46330;50.822;7.126;2023-04-30T11:06:48;101440.19;;;26.40;27.45
9141;BME280;46330;50.822;7.126;2023-04-30T11:09:17;101436.81;;;25.36;25.51
9141;BME280;46330;50.822;7.126;2023-04-30T11:11:46;101442.53;;;26.68;26.63
9141;BME280;46330;50.822;7.126;2023-04-30T11:14:19;101435.16;;;27.31;25.04
9141;BME280;46330;50.822;7.126;2023-04-30T11:16:49;101427.09;;;27.31;24.06
9141;BME280;46330;50.822;7.126;2023-04-30T11:19:17;101426.84;;;26.39;25.93
9141;BME280;46330;50.822;7.126;2023-04-30T11:22:14;101424.19;;;24.98;26.87
9141;BME280;46330;50.822;7.126;2023-04-30T11:24:50;101424.44;;;24.26;28.19
9141;BME280;46330;50.822;7.126;2023-04-30T11:27:23;101423.72;;;24.92;25.95
9141;BME280;46330;50.822;7.126;2023-04-30T11:29:52;101419.19;;;25.58;26.44
9141;BME280;46330;50.822;7.126;2023-04-30T11:32:22;101421.97;;;25.05;26.89
9141;BME280;46330;50.822;7.126;2023-04-30T11:34:51;101421.72;;;24.95;27.29
9141;BME280;46330;50.822;7.126;2023-04-30T11:37:23;101417.50;;;25.18;27.57
9141;BME280;46330;50.822;7.126;2023-04-30T11:39:51;101409.22;;;24.82;28.17
9141;BME280;46330;50.822;7.126;2023-04-30T11:42:20;101400.06;;;24.45;27.27
9141;BME280;46330;50.822;7.126;2023-04-30T11:44:49;101407.72;;;23.94;28.08
9141;BME280;46330;50.822;7.126;2023-04-30T11:47:17;101398.84;;;23.80;28.57
9141;BME280;46330;50.822;7.126;2023-04-30T11:49:45;101399.63;;;23.82;26.67
9141;BME280;46330;50.822;7.126;2023-04-30T11:52:13;101393.75;;;24.46;26.98
9141;BME280;46330;50.822;7.126;2023-04-30T11:54:41;101397.50;;;23.73;29.60
9141;BME280;46330;50.822;7.126;2023-04-30T11:57:08;101394.63;;;24.04;29.24
9141;BME280;46330;50.822;7.126;2023-04-30T11:59:40;101385.25;;;25.32;28.51
9141;BME280;46330;50.822;7.126;2023-04-30T12:02:13;101377.72;;;27.44;25.50
9141;BME280;46330;50.822;7.126;2023-04-30T12:04:42;101379.84;;;26.93;24.76
9141;BME280;46330;50.822;7.126;2023-04-30T12:07:10;101374.25;;;26.96;25.75
9141;BME280;46330;50.822;7.126;2023-04-30T12:09:51;101377.75;;;27.20;25.92
9141;BME280;46330;50.822;7.126;2023-04-30T12:12:26;101377.00;;;24.56;27.07
9141;BME280;46330;50.822;7.126;2023-04-30T12:14:54;101372.78;;;25.71;25.58
9141;BME280;46330;50.822;7.126;2023-04-30T12:17:33;101367.03;;;26.97;24.58
9141;BME280;46330;50.822;7.126;2023-04-30T12:20:01;101371.25;;;27.58;23.46
9141;BME280;46330;50.822;7.126;2023-04-30T12:22:31;101364.88;;;27.59;24.47
9141;BME280;46330;50.822;7.126;2023-04-30T12:24:59;101366.69;;;27.36;24.47
9141;BME280;46330;50.822;7.126;2023-04-30T12:27:27;101367.19;;;26.35;25.59
9141;BME280;46330;50.822;7.126;2023-04-30T12:30:01;101361.19;;;24.39;27.43
9141;BME280;46330;50.822;7.126;2023-04-30T12:32:29;101360.66;;;24.20;27.99
9141;BME280;46330;50.822;7.126;2023-04-30T12:35:00;101351.53;;;23.82;28.49
9141;BME280;46330;50.822;7.126;2023-04-30T12:37:30;101352.75;;;23.90;29.37
9141;BME280;46330;50.822;7.126;2023-04-30T12:42:30;101359.19;;;22.08;31.59
9141;BME280;46330;50.822;7.126;2023-04-30T12:44:59;101350.19;;;22.41;30.88
9141;BME280;46330;50.822;7.126;2023-04-30T12:47:28;101349.09;;;24.20;30.12
9141;BME280;46330;50.822;7.126;2023-04-30T12:49:56;101352.00;;;23.46;29.94
9141;BME280;46330;50.822;7.126;2023-04-30T12:52:26;101337.13;;;23.12;29.09
9141;BME280;46330;50.822;7.126;2023-04-30T12:54:54;101336.78;;;24.17;28.56
9141;BME280;46330;50.822;7.126;2023-04-30T12:57:22;101336.34;;;24.64;26.66
9141;BME280;46330;50.822;7.126;2023-04-30T12:59:57;101335.22;;;26.32;26.08
9141;BME280;46330;50.822;7.126;2023-04-30T13:02:27;101324.94;;;25.27;26.72
9141;BME280;46330;50.822;7.126;2023-04-30T13:04:58;101338.88;;;24.26;27.25
9141;BME280;46330;50.822;7.126;2023-04-30T13:07:35;101322.78;;;23.57;29.21
9141;BME280;46330;50.822;7.126;2023-04-30T13:10:04;101320.75;;;22.88;29.65
9141;BME280;46330;50.822;7.126;2023-04-30T13:12:32;101324.59;;;22.84;31.01
9141;BME280;46330;50.822;7.126;2023-04-30T13:15:00;101321.47;;;22.15;31.18
9141;BME280;46330;50.822;7.126;2023-04-30T13:17:29;101315.34;;;21.49;31.75